Time;durP1;ratioP1;P1;durP2;ratioP2;P2;SDS_P1;SDS_P2;PMS_P1;PMS_P2;Temp;Humidity;BMP_temperature;BMP_pressure;BME280_temperature;BME280_humidity;BME280_pressure;Samples;Min_cycle;Max_cycle;Signal;HPM_P1;HPM_P2
2022/05/03 00:00:21;;;;;;;7.95;6.40;;;;;;;;;;6160599;23;20447;-92
2022/05/03 00:03:08;;;;;;;8.48;6.43;;;;;;;;;;6137007;23;20022;-92
2022/05/03 00:05:37;;;;;;;10.63;7.30;;;;;;;;;;6138463;23;20021;-91
2022/05/03 00:08:04;;;;;;;10.15;7.57;;;;;;;;;;6160865;23;20013;-93
2022/05/03 00:10:55;;;;;;;10.20;7.60;;;6.80;99.90;;;;;;6136900;23;20028;-91
2022/05/03 00:13:26;;;;;;;8.65;7.15;;;;;;;;;;6111684;23;20057;-92
2022/05/03 00:15:55;;;;;;;10.85;7.78;;;;;;;;;;6137751;23;20379;-91
2022/05/03 00:18:22;;;;;;;8.13;7.25;;;;;;;;;;6137836;23;20018;-92
2022/05/03 00:20:49;;;;;;;7.75;6.78;;;;;;;;;;6135688;23;20014;-91
2022/05/03 00:23:16;;;;;;;9.38;7.53;;;;;;;;;;6136199;23;20450;-91
2022/05/03 00:25:50;;;;;;;7.57;6.78;;;;;;;;;;6164098;23;20079;-92
2022/05/03 00:28:22;;;;;;;11.27;7.75;;;;;;;;;;6163492;23;20320;-91
2022/05/03 00:30:49;;;;;;;7.60;6.88;;;;;;;;;;6139279;23;20028;-90
2022/05/03 00:33:16;;;;;;;6.00;4.20;;;;;;;;;;6162074;23;20443;-90
2022/05/03 00:35:43;;;;;;;5.35;4.85;;;;;;;;;;6139775;23;20035;-91
2022/05/03 00:38:12;;;;;;;5.40;4.90;;;;;;;;;;6162999;23;20014;-90
2022/05/03 00:40:44;;;;;;;8.55;5.22;;;;;;;;;;6162775;23;20022;-90
2022/05/03 00:43:31;;;;;;;7.30;5.43;;;;;;;;;;6137357;23;20033;-89
2022/05/03 00:46:21;;;;;;;7.97;6.90;;;;;;;;;;6164264;23;20024;-91
2022/05/03 00:48:50;;;;;;;9.88;7.93;;;;;;;;;;5999045;23;20433;-91
2022/05/03 00:51:20;;;;;;;9.43;8.10;;;;;;;;;;6019774;23;20338;-91
2022/05/03 00:53:52;;;;;;;12.68;8.77;;;;;;;;;;6015739;23;20020;-91
2022/05/03 00:56:30;;;;;;;11.02;9.05;;;;;;;;;;6137528;23;20031;-91
2022/05/03 00:59:05;;;;;;;10.38;9.10;;;;;;;;;;6204495;23;20321;-91
2022/05/03 01:01:34;;;;;;;12.70;9.43;;;;;;;;;;6204103;23;20012;-92
2022/05/03 01:06:51;;;;;;;10.82;9.70;;;;;;;;;;6251376;22;20024;-90
2022/05/03 01:09:42;;;;;;;11.90;9.90;;;;;;;;;;6201722;23;20074;-91
2022/05/03 01:12:11;;;;;;;20.48;10.63;;;;;;;;;;6202827;23;20068;-92
2022/05/03 01:15:02;;;;;;;10.65;9.35;;;6.50;99.90;;;;;;6202416;23;20042;-91
2022/05/03 01:17:45;;;;;;;17.08;10.50;;;;;;;;;;6198567;23;20005;-92
2022/05/03 01:20:41;;;;;;;14.07;10.20;;;;;;;;;;6202646;23;20028;-91
2022/05/03 01:23:29;;;;;;;10.73;9.60;;;;;;;;;;6081914;23;20028;-91
2022/05/03 01:26:14;;;;;;;17.48;10.07;;;;;;;;;;6107583;23;20022;-91
2022/05/03 01:28:56;;;;;;;20.02;11.73;;;;;;;;;;6107523;23;20022;-91
2022/05/03 01:31:27;;;;;;;14.00;11.48;;;;;;;;;;6107203;23;20013;-91
2022/05/03 01:33:56;;;;;;;13.38;10.80;;;;;;;;;;6106111;23;20106;-91
2022/05/03 01:36:33;;;;;;;12.70;10.82;;;;;;;;;;6106222;23;20045;-92
2022/05/03 01:39:14;;;;;;;11.32;10.02;;;;;;;;;;6107150;23;20022;-92
2022/05/03 01:41:49;;;;;;;11.23;8.15;;;;;;;;;;6106924;23;20466;-91
2022/05/03 01:44:25;;;;;;;11.50;8.52;;;;;;;;;;6106816;23;20022;-91
2022/05/03 01:46:54;;;;;;;9.30;7.78;;;;;;;;;;6106687;23;20014;-91
2022/05/03 01:52:23;;;;;;;8.18;6.53;;;;;;;;;;6107349;23;20025;-90
2022/05/03 01:54:55;;;;;;;7.68;5.88;;;;;;;;;;6106851;23;20022;-91
2022/05/03 01:57:22;;;;;;;6.90;5.85;;;;;;;;;;6106529;23;20022;-90
2022/05/03 01:59:57;;;;;;;7.85;5.90;;;;;;;;;;6181051;23;20070;-91
2022/05/03 02:02:46;;;;;;;6.80;6.00;;;;;;;;;;6225567;23;20016;-91
2022/05/03 02:05:20;;;;;;;10.75;6.65;;;;;;;;;;6210552;23;20323;-91
2022/05/03 02:07:46;;;;;;;6.88;5.88;;;;;;;;;;6224809;23;20051;-90
2022/05/03 02:10:15;;;;;;;7.93;6.57;;;;;;;;;;6225317;23;20009;-91
2022/05/03 02:12:49;;;;;;;10.77;8.77;;;;;;;;;;6196174;23;20016;-91
2022/05/03 02:15:21;;;;;;;8.93;7.38;;;;;;;;;;6195001;23;20068;-92
2022/05/03 02:18:09;;;;;;;7.05;6.35;;;;;;;;;;6219190;23;20033;-92
2022/05/03 02:20:53;;;;;;;8.70;7.80;;;;;;;;;;6197031;23;20512;-92
2022/05/03 02:23:29;;;;;;;12.52;9.70;;;;;;;;;;6196155;23;20450;-90
2022/05/03 02:28:38;;;;;;;10.55;9.32;;;;;;;;;;6223501;23;20149;-90
2022/05/03 02:31:19;;;;;;;12.02;9.73;;;;;;;;;;6173372;23;20024;-92
2022/05/03 02:33:50;;;;;;;14.60;11.38;;;;;;;;;;6174171;23;20016;-93
2022/05/03 02:36:19;;;;;;;12.63;10.68;;;;;;;;;;6172663;23;20020;-92
2022/05/03 02:38:52;;;;;;;19.05;11.07;;;;;;;;;;6174845;23;20441;-93
2022/05/03 02:41:27;;;;;;;15.13;10.82;;;;;;;;;;6172807;23;20056;-94
2022/05/03 02:44:14;;;;;;;14.55;11.68;;;;;;;;;;6198792;23;20024;-93
2022/05/03 02:47:10;;;;;;;14.52;12.27;;;;;;;;;;6173917;23;20048;-94
2022/05/03 02:49:56;;;;;;;13.43;11.23;;;;;;;;;;6172149;23;20012;-93
2022/05/03 02:56:01;;;;;;;;;;;;;;;;;;;;;
2022/05/03 02:59:17;;;;;;;14.90;12.30;;;;;;;;;;6131646;23;20022;-95
2022/05/03 03:02:04;;;;;;;14.35;11.80;;;;;;;;;;6084199;23;20069;-94
2022/05/03 03:05:10;;;;;;;13.85;11.35;;;;;;;;;;6050559;23;20022;-91
2022/05/03 03:11:58;;;;;;;;;;;;;;;;;;;;;
2022/05/03 03:23:41;;;;;;;;;;;;;;;;;;;;;
2022/05/03 03:33:36;;;;;;;16.55;13.57;;;;;;;;;;6015139;23;20075;-95
2022/05/03 03:37:01;;;;;;;17.13;13.48;;;;;;;;;;5995607;23;20024;-92
2022/05/03 03:55:49;;;;;;;17.63;14.60;;;;;;;;;;6252703;22;20032;-94
2022/05/03 04:35:33;;;;;;;20.05;13.77;;;;;;;;;;6255869;22;20024;-92
2022/05/03 05:57:39;;;;;;;30.77;18.10;;;;;;;;;;6215998;22;20048;-93
2022/05/03 06:00:06;;;;;;;35.35;21.15;;;;;;;;;;6170027;23;20016;-95
2022/05/03 06:02:32;;;;;;;30.05;19.60;;;;;;;;;;6168178;23;20020;-94
2022/05/03 06:04:58;;;;;;;32.40;20.48;;;;;;;;;;6170640;23;20019;-93
2022/05/03 06:07:24;;;;;;;18.25;9.73;;;;;;;;;;6193866;23;20028;-93
2022/05/03 06:09:51;;;;;;;14.80;7.13;;;;;;;;;;6195719;23;20013;-94
2022/05/03 06:12:17;;;;;;;13.85;5.75;;;;;;;;;;6194926;23;20422;-93
2022/05/03 06:14:43;;;;;;;13.77;5.35;;;;;;;;;;6194728;23;20017;-92
2022/05/03 06:17:09;;;;;;;10.70;4.35;;;;;;;;;;6195596;23;20040;-93
2022/05/03 06:19:38;;;;;;;9.90;4.97;;;;;;;;;;6195574;23;20016;-94
2022/05/03 06:22:04;;;;;;;11.30;4.93;;;;;;;;;;6197093;23;20354;-92
2022/05/03 06:24:31;;;;;;;14.60;4.93;;;;;;;;;;6194163;23;20072;-92
2022/05/03 06:26:58;;;;;;;6.30;3.80;;;;;;;;;;6193810;23;20014;-92
2022/05/03 06:29:24;;;;;;;10.07;4.55;;;;;;;;;;6192327;23;20024;-95
2022/05/03 06:31:50;;;;;;;14.85;4.68;;;;;;;;;;6194637;23;20043;-92
2022/05/03 06:34:17;;;;;;;14.70;4.55;;;;;;;;;;6195188;23;20074;-93
2022/05/03 06:36:44;;;;;;;10.68;4.78;;;;;;;;;;6194910;23;20024;-93
2022/05/03 06:39:10;;;;;;;13.02;4.45;;;;;;;;;;6194546;23;20001;-95
2022/05/03 06:41:36;;;;;;;10.20;4.85;;;;;;;;;;6195665;23;20020;-92
2022/05/03 06:44:03;;;;;;;9.25;4.32;;;;;;;;;;6195938;23;20386;-94
2022/05/03 06:46:29;;;;;;;14.98;5.63;;;;;;;;;;6196986;23;20016;-94
2022/05/03 06:48:55;;;;;;;12.25;5.82;;;;;;;;;;6193923;23;20028;-95
2022/05/03 06:51:21;;;;;;;20.05;7.07;;;;;;;;;;6195573;23;20091;-96
2022/05/03 06:53:48;;;;;;;16.40;5.45;;;;;;;;;;6194991;23;20071;-93
2022/05/03 06:56:14;;;;;;;12.48;5.80;;;;;;;;;;6194617;23;20031;-93
2022/05/03 06:58:41;;;;;;;13.65;7.15;;;;;;;;;;6210166;23;20020;-93
2022/05/03 07:01:08;;;;;;;16.48;6.57;;;;;;;;;;6198645;23;20450;-92
2022/05/03 07:03:35;;;;;;;12.68;6.28;;;;;;;;;;6199589;23;20096;-92
2022/05/03 07:06:02;;;;;;;16.90;6.95;;;;;;;;;;6198343;23;20027;-92
2022/05/03 07:08:28;;;;;;;19.10;6.25;;;;;;;;;;6198889;23;20027;-91
2022/05/03 07:10:54;;;;;;;23.48;6.45;;;;;;;;;;6197682;23;20075;-92
2022/05/03 07:13:23;;;;;;;17.73;6.68;;;;;;;;;;6201823;23;20036;-92
2022/05/03 07:15:59;;;;;;;18.52;5.85;;;;;;;;;;6199657;23;20047;-92
2022/05/03 07:23:55;;;;;;;24.83;7.50;;;;;;;;;;6221858;23;20099;-93
2022/05/03 07:26:21;;;;;;;16.35;6.10;;;;;;;;;;6198214;23;20052;-93
2022/05/03 07:28:48;;;;;;;17.42;5.93;;;;;;;;;;6198809;23;20051;-93
2022/05/03 07:31:17;;;;;;;14.23;4.82;;;;;;;;;;6198928;23;20013;-93
2022/05/03 07:33:44;;;;;;;17.08;5.03;;;;;;;;;;6197457;23;20020;-92
2022/05/03 07:36:10;;;;;;;22.63;6.47;;;;;;;;;;6198765;23;20016;-92
2022/05/03 07:38:36;;;;;;;14.57;5.47;;;;;;;;;;6198351;23;20052;-93
2022/05/03 07:41:02;;;;;;;18.80;5.72;;;;;;;;;;6197734;23;20053;-93
2022/05/03 07:43:28;;;;;;;13.93;5.13;;;;;;;;;;6197790;23;20046;-93
2022/05/03 07:45:55;;;;;;;16.02;4.80;;;;;;;;;;6198078;23;20103;-93
2022/05/03 07:48:21;;;;;;;17.50;5.43;;;;;;;;;;6198348;23;20012;-92
2022/05/03 07:50:47;;;;;;;20.30;5.22;;;;;;;;;;6197923;23;20016;-93
2022/05/03 07:53:14;;;;;;;15.18;4.72;;;;;;;;;;6197389;23;20023;-92
2022/05/03 07:55:42;;;;;;;19.25;4.85;;;;;;;;;;6200352;23;20055;-92
2022/05/03 07:58:08;;;;;;;18.33;5.15;;;;;;;;;;6190058;23;20020;-92
2022/05/03 08:00:34;;;;;;;11.07;4.95;;;;;;;;;;6169448;23;20024;-93
2022/05/03 08:03:00;;;;;;;21.70;5.00;;;;;;;;;;6168468;23;20020;-92
2022/05/03 08:05:26;;;;;;;18.80;6.00;;;;;;;;;;6170283;23;20061;-93
2022/05/03 08:07:52;;;;;;;16.30;5.05;;;;;;;;;;6167306;23;20017;-92
2022/05/03 08:10:18;;;;;;;10.95;4.95;;;;;;;;;;6168494;23;20396;-93
2022/05/03 08:12:50;;;;;;;16.65;4.65;;;;;;;;;;6168985;23;20091;-94
2022/05/03 08:15:17;;;;;;;8.73;4.95;;;;;;;;;;6167745;23;20028;-92
2022/05/03 08:17:43;;;;;;;6.90;3.65;;;;;;;;;;6168978;23;20027;-93
2022/05/03 08:20:09;;;;;;;11.93;4.28;;;;;;;;;;6169717;23;20442;-92
2022/05/03 08:22:35;;;;;;;15.25;4.10;;;;;;;;;;6195368;23;20021;-92
2022/05/03 08:25:02;;;;;;;19.38;4.28;;;;;;;;;;6168631;23;20043;-92
2022/05/03 08:27:29;;;;;;;21.00;4.65;;;;;;;;;;6169463;23;20027;-93
2022/05/03 08:29:55;;;;;;;18.83;4.53;;;;;;;;;;6168561;23;20139;-93
2022/05/03 08:32:21;;;;;;;11.05;4.28;;;;;;;;;;6169758;23;20031;-94
2022/05/03 08:34:47;;;;;;;7.28;3.63;;;;;;;;;;6169831;23;20446;-93
2022/05/03 08:42:42;;;;;;;10.00;3.40;;;;;;;;;;6192768;23;20021;-91
2022/05/03 08:45:09;;;;;;;9.35;3.30;;;;;;;;;;6168645;23;20021;-92
2022/05/03 08:47:37;;;;;;;7.65;2.88;;;;;;;;;;6170883;23;20383;-93
2022/05/03 08:50:07;;;;;;;10.20;3.35;;;;;;;;;;6196985;23;20023;-93
2022/05/03 08:52:43;;;;;;;9.10;2.80;;;;;;;;;;6169906;23;20016;-92
2022/05/03 08:55:11;;;;;;;5.35;2.90;;;;;;;;;;6171311;23;20323;-94
2022/05/03 08:57:37;;;;;;;13.85;3.60;;;;;;;;;;6170304;23;20020;-92
2022/05/03 09:00:06;;;;;;;12.77;4.05;;;;;;;;;;6196104;23;20032;-92
2022/05/03 09:02:37;;;;;;;8.35;3.42;;;;;;;;;;6195798;23;20446;-93
2022/05/03 09:05:03;;;;;;;10.95;2.72;;;;;;;;;;6196425;23;20399;-91
2022/05/03 09:07:34;;;;;;;10.27;2.80;;;;;;;;;;6195488;23;20096;-94
2022/05/03 09:10:14;;;;;;;8.18;2.97;;;;;;;;;;6195433;23;20040;-94
2022/05/03 09:12:41;;;;;;;21.60;3.72;;;;;;;;;;6195315;23;20024;-93
2022/05/03 09:15:07;;;;;;;10.30;3.33;;;;;;;;;;6194651;23;20017;-93
2022/05/03 09:17:35;;;;;;;8.40;2.28;;;;;;;;;;6194652;23;20028;-93
2022/05/03 09:23:46;;;;;;;7.25;2.85;;;;;;;;;;6196005;23;20020;-92
2022/05/03 09:25:36;;;;;;;11.80;3.45;;;;;;;;;;6194663;23;20016;-92
2022/05/03 09:28:06;;;;;;;6.18;3.17;;;;;;;;;;6196451;23;20020;-94
2022/05/03 09:30:32;;;;;;;10.48;3.17;;;;;;;;;;6193713;23;20023;-94
2022/05/03 09:32:58;;;;;;;7.35;2.90;;;;;;;;;;6194456;23;20466;-92
2022/05/03 09:35:32;;;;;;;7.55;3.53;;;;;;;;;;6194014;23;20095;-93
2022/05/03 09:37:58;;;;;;;7.82;2.70;;;;;;;;;;6170904;23;20026;-94
2022/05/03 09:40:25;;;;;;;8.80;2.95;;;;;;;;;;6193091;23;20099;-92
2022/05/03 09:42:55;;;;;;;5.75;2.22;;;;;;;;;;6194418;23;20346;-93
2022/05/03 09:45:23;;;;;;;11.90;2.53;;;;;;;;;;6194851;23;20446;-93
2022/05/03 09:47:53;;;;;;;12.07;3.38;;;;;;;;;;6195324;23;20314;-93
2022/05/03 09:50:28;;;;;;;14.75;3.15;;;;;;;;;;6193176;23;20056;-93
2022/05/03 09:52:55;;;;;;;8.98;3.10;;;;;;;;;;6193326;23;20025;-94
2022/05/03 09:55:29;;;;;;;9.52;3.03;;;;;;;;;;6194399;23;20023;-93
2022/05/03 09:57:57;;;;;;;6.25;2.45;;;;;;;;;;6193634;23;20438;-93
2022/05/03 10:00:23;;;;;;;9.98;2.95;;;;;;;;;;6194607;23;20020;-93
2022/05/03 10:02:52;;;;;;;6.63;2.40;;;;;;;;;;6194058;23;20024;-93
2022/05/03 10:05:21;;;;;;;12.77;2.80;;;;;;;;;;6169320;23;20016;-93
2022/05/03 10:07:48;;;;;;;14.55;2.97;;;;;;;;;;6194399;23;20453;-93
2022/05/03 10:10:17;;;;;;;7.72;2.30;;;;;;;;;;6194133;23;20027;-93
2022/05/03 10:12:44;;;;;;;3.75;2.13;;;;;;;;;;6193929;23;20088;-94
2022/05/03 10:15:18;;;;;;;14.52;2.88;;;;;;;;;;6194342;23;20021;-93
2022/05/03 10:20:45;;;;;;;4.70;2.35;;;;;;;;;;6192870;23;20066;-93
2022/05/03 10:23:21;;;;;;;5.38;2.17;;;;;;;;;;6194835;23;20052;-92
2022/05/03 10:25:47;;;;;;;4.72;2.30;;;;;;;;;;6192496;23;20008;-94
2022/05/03 10:28:14;;;;;;;11.20;2.40;;;;;;;;;;6193750;23;20039;-93
2022/05/03 10:31:00;;;;;;;13.32;2.80;;;;;;;;;;6169161;23;20017;-94
2022/05/03 10:33:28;;;;;;;7.10;2.10;;;;;;;;;;6193437;23;20091;-93
2022/05/03 10:35:54;;;;;;;12.43;2.33;;;;;;;;;;6193678;23;20096;-93
2022/05/03 10:38:43;;;;;;;8.60;2.13;;;;;;;;;;6193883;23;20104;-93
2022/05/03 10:41:11;;;;;;;12.75;2.58;;;;;;;;;;6074306;23;20015;-93
2022/05/03 10:43:40;;;;;;;5.30;2.40;;;;;;;;;;6052709;23;20029;-93
2022/05/03 10:46:10;;;;;;;10.02;1.80;;;;;;;;;;6050636;23;20018;-94
2022/05/03 10:48:41;;;;;;;10.10;2.28;;;;;;;;;;6050199;23;20022;-94
2022/05/03 10:51:15;;;;;;;7.65;2.70;;;;;;;;;;6051493;23;20018;-93
2022/05/03 10:53:42;;;;;;;6.15;2.35;;;;;;;;;;6051856;23;20024;-94
2022/05/03 10:56:18;;;;;;;5.80;2.00;;;;;;;;;;6054552;23;20030;-94
2022/05/03 10:58:45;;;;;;;8.15;2.53;;;;;;;;;;6062735;23;20082;-92
2022/05/03 11:01:12;;;;;;;7.05;2.15;;;;;;;;;;6053935;23;20033;-93
2022/05/03 11:03:47;;;;;;;9.38;2.80;;;;;;;;;;6053304;23;20127;-93
2022/05/03 11:06:19;;;;;;;4.05;1.80;;;;;;;;;;6054214;23;20073;-94
2022/05/03 11:14:04;;;;;;;7.55;2.20;;;;;;;;;;6077501;23;19949;-92
2022/05/03 11:16:40;;;;;;;8.57;2.13;;;;;;;;;;6053163;23;20479;-93
2022/05/03 11:19:10;;;;;;;6.72;2.25;;;;;;;;;;6180655;23;20016;-93
2022/05/03 11:21:36;;;;;;;7.18;2.42;;;;;;;;;;6170995;23;20020;-93
2022/05/03 11:24:02;;;;;;;13.27;2.40;;;;;;;;;;6171899;23;20319;-93
2022/05/03 11:26:29;;;;;;;5.15;2.00;;;;;;;;;;6146602;23;20087;-94
2022/05/03 11:28:57;;;;;;;9.32;2.53;;;;;;;;;;6173332;23;20008;-94
2022/05/03 11:31:25;;;;;;;11.35;2.15;;;;;;;;;;6173480;23;20124;-93
2022/05/03 11:33:52;;;;;;;8.50;2.30;;;;;;;;;;6173637;23;20023;-94
2022/05/03 11:36:19;;;;;;;4.05;1.80;;;;;;;;;;6170274;23;20493;-94
2022/05/03 11:38:48;;;;;;;10.63;2.67;;;;;;;;;;6170329;23;20100;-93
2022/05/03 11:41:16;;;;;;;3.65;1.85;;;;;;;;;;6174238;23;20020;-92
2022/05/03 11:43:42;;;;;;;5.47;1.65;;;;;;;;;;6173841;23;20001;-91
2022/05/03 11:46:08;;;;;;;6.07;2.45;;;;;;;;;;6172686;23;20027;-92
2022/05/03 11:48:35;;;;;;;4.15;1.95;;;;;;;;;;6173929;23;20366;-93
2022/05/03 11:56:34;;;;;;;4.88;1.73;;;;;;;;;;6197774;23;20438;-92
2022/05/03 11:59:03;;;;;;;6.07;2.10;;;;;;;;;;6174382;23;20396;-95
2022/05/03 12:01:35;;;;;;;8.55;2.17;;;;;;;;;;6173021;23;20017;-94
2022/05/03 12:04:08;;;;;;;7.47;2.40;;;;;;;;;;6173914;23;20020;-95
2022/05/03 12:06:44;;;;;;;7.38;1.77;;;;;;;;;;6197274;23;20260;-94
2022/05/03 12:09:19;;;;;;;5.95;2.00;;;;;;;;;;6172536;23;20017;-94
2022/05/03 12:14:49;;;;;;;7.72;2.83;;;;;;;;;;6223261;23;20032;-94
2022/05/03 12:17:15;;;;;;;12.55;2.28;;;;;;;;;;6172458;23;20024;-95
2022/05/03 12:19:42;;;;;;;7.55;2.08;;;;;;;;;;6173076;23;20016;-94
2022/05/03 12:28:47;;;;;;;5.55;1.95;;;;;;;;;;6147699;23;20049;-96
2022/05/03 12:33:59;;;;;;;9.80;2.70;;;;;;;;;;6261913;23;20243;-96
2022/05/03 12:36:32;;;;;;;6.93;2.20;;;;;;;;;;6236014;23;20092;-96
2022/05/03 12:39:08;;;;;;;5.57;2.00;;;;;;;;;;6215070;22;20023;-95
2022/05/03 12:45:09;;;;;;;4.35;1.83;;;;;;;;;;6234299;23;20032;-96
2022/05/03 12:47:31;;;;;;;5.50;1.75;;;;;;;;;;6252102;23;20047;-96
2022/05/03 12:50:39;;;;;;;;;;;;;;;;;;;;;
2022/05/03 12:53:41;;;;;;;;;;;;;;;;;;;;;
2022/05/03 12:59:55;;;;;;;3.08;2.20;;;;;;;;;;6187719;23;20035;-96
2022/05/03 13:02:26;;;;;;;3.60;1.77;;;;;;;;;;6212909;23;20449;-96
2022/05/03 13:05:02;;;;;;;7.35;1.92;;;;;;;;;;6201636;23;20045;-95
2022/05/03 13:07:41;;;;;;;9.30;2.30;;;;;;;;;;6177149;23;20089;-96
2022/05/03 13:10:11;;;;;;;5.00;2.10;;;;;;;;;;6178246;23;20017;-96
2022/05/03 13:12:56;;;;;;;6.25;2.08;;;;;;;;;;6176921;23;20021;-95
2022/05/03 13:15:25;;;;;;;13.10;2.17;;;;;;;;;;6201995;23;20013;-96
2022/05/03 13:18:15;;;;;;;5.15;1.70;;;;;;;;;;6203514;23;20025;-96
2022/05/03 13:21:10;;;;;;;6.90;2.10;;;;;;;;;;6171119;23;20041;-96
2022/05/03 13:23:38;;;;;;;5.90;2.03;;;;;;;;;;6144758;23;20124;-96
2022/05/03 13:26:11;;;;;;;3.22;2.20;;;;;;;;;;6097559;23;20440;-94
2022/05/03 13:28:50;;;;;;;6.07;2.22;;;;;;;;;;6145372;23;20060;-95
2022/05/03 13:31:51;;;;;;;6.28;2.70;;;;;;;;;;6232240;22;20035;-95
2022/05/03 13:34:41;;;;;;;6.70;2.67;;;;;;;;;;6212699;23;20024;-95
2022/05/03 13:43:09;;;;;;;10.20;2.75;;;;;;;;;;6257664;23;20020;-95
2022/05/03 13:45:39;;;;;;;7.65;2.45;;;;;;;;;;6183029;23;20016;-93
2022/05/03 13:48:12;;;;;;;5.75;2.58;;;;;;;;;;6207898;23;20405;-95
2022/05/03 13:50:41;;;;;;;5.22;2.38;;;;;;;;;;6211051;23;20016;-95
2022/05/03 13:53:11;;;;;;;8.65;2.53;;;;;;;;;;6241263;23;20050;-96
2022/05/03 13:58:12;;;;;;;8.63;2.50;;;;;;;;;;6284034;22;20023;-95
2022/05/03 14:00:50;;;;;;;4.90;2.78;;;;;;;;;;6255635;23;20024;-95
2022/05/03 14:03:26;;;;;;;7.53;2.10;;;;;;;;;;6120409;23;20006;-95
2022/05/03 14:05:55;;;;;;;10.77;2.55;;;;;;;;;;6097065;23;20030;-96
2022/05/03 14:08:27;;;;;;;9.43;3.17;;;;;;;;;;6109074;22;20026;-95
2022/05/03 14:11:12;;;;;;;8.15;2.50;;;;;;;;;;6244248;23;20027;-96
2022/05/03 14:13:40;;;;;;;;;;;13.60;99.90;;;;;;6241596;23;20019;-96
2022/05/03 14:16:06;;;;;;;9.43;2.50;;;;;;;;;;6214898;23;19946;-96
2022/05/03 14:18:44;;;;;;;6.07;2.83;;;;;;;;;;6220987;23;20050;-96
2022/05/03 14:21:13;;;;;;;9.30;2.35;;;;;;;;;;6220516;23;20028;-96
2022/05/03 14:23:54;;;;;;;8.48;2.55;;;;;;;;;;6244080;23;20045;-96
2022/05/03 14:26:26;;;;;;;5.78;2.83;;;;;;;;;;6266317;23;20016;-96
2022/05/03 14:28:56;;;;;;;8.38;3.30;;;;;;;;;;6233516;22;20020;-96
2022/05/03 14:31:26;;;;;;;8.68;2.28;;;;;;;;;;6238787;23;20020;-96
2022/05/03 14:34:01;;;;;;;4.40;2.38;;;;;;;;;;6241736;23;20023;-96
2022/05/03 14:39:32;;;;;;;6.70;2.75;;;;;;;;;;6268241;22;20020;-95
2022/05/03 14:42:21;;;;;;;5.85;2.20;;;;;;;;;;6244167;23;20028;-95
2022/05/03 14:45:17;;;;;;;7.82;2.22;;;;;;;;;;6240408;23;20019;-95
2022/05/03 14:50:34;;;;;;;6.05;3.00;;;;;;;;;;6205645;23;20027;-95
2022/05/03 14:53:04;;;;;;;4.72;2.78;;;;;;;;;;6151463;23;20075;-96
2022/05/03 14:55:39;;;;;;;6.70;2.75;;;;;;;;;;6148723;23;20109;-95
2022/05/03 15:04:13;;;;;;;8.43;2.30;;;;;;;;;;6178151;23;20021;-95
2022/05/03 15:06:42;;;;;;;7.70;3.15;;;;;;;;;;6149838;23;20020;-95
2022/05/03 15:09:43;;;;;;;6.70;2.47;;;;;;;;;;6119261;23;20575;-95
2022/05/03 15:12:12;;;;;;;7.68;2.72;;;;;;;;;;6116328;23;20028;-96
2022/05/03 15:14:44;;;;;;;7.55;2.22;;;;;;;;;;6144766;23;20026;-95
2022/05/03 15:17:19;;;;;;;8.98;2.42;;;;;;;;;;6120051;23;20069;-96
2022/05/03 15:20:09;;;;;;;;;;;13.80;99.90;;;;;;6144776;23;20024;-96
2022/05/03 15:25:21;;;;;;;6.45;2.42;;;;;;;;;;6109393;23;20097;-96
2022/05/03 15:27:51;;;;;;;11.73;3.08;;;;;;;;;;6118966;23;20021;-96
2022/05/03 15:30:27;;;;;;;12.55;3.25;;;;;;;;;;6094887;23;20468;-95
2022/05/03 15:33:12;;;;;;;3.63;2.10;;;;;;;;;;6142783;23;20026;-95
2022/05/03 15:35:47;;;;;;;11.30;2.35;;;;;;;;;;6119455;23;20022;-95
2022/05/03 15:38:17;;;;;;;7.18;2.88;;;;;;;;;;6121411;23;20046;-95
2022/05/03 15:40:46;;;;;;;5.03;2.75;;;;;;;;;;6123128;23;20025;-96
2022/05/03 15:46:05;;;;;;;7.28;2.67;;;;;;;;;;6056091;23;20051;-95
2022/05/03 15:48:35;;;;;;;7.35;2.63;;;;;;;;;;6064494;23;20019;-94
2022/05/03 15:51:07;;;;;;;8.40;2.60;;;;;;;;;;6061768;23;20031;-96
2022/05/03 15:53:35;;;;;;;11.55;2.58;;;;;;;;;;6057388;23;20019;-94
2022/05/03 15:56:01;;;;;;;7.63;3.17;;;;;;;;;;6063423;23;20092;-95
2022/05/03 15:58:29;;;;;;;6.65;2.40;;;;;;;;;;6056532;23;20015;-96
2022/05/03 16:01:02;;;;;;;8.77;2.70;;;;;;;;;;6057100;23;20030;-95
2022/05/03 16:03:34;;;;;;;8.20;2.80;;;;;;;;;;6061598;23;20007;-95
2022/05/03 16:06:00;;;;;;;5.10;2.53;;;;;;;;;;6065687;23;20054;-94
2022/05/03 16:08:26;;;;;;;5.18;2.63;;;;;;;;;;6048821;23;20023;-94
2022/05/03 16:10:55;;;;;;;7.40;2.95;;;;;;;;;;6051606;23;20019;-94
2022/05/03 16:16:55;;;;;;;4.28;2.80;;;;;;;;;;6078186;23;20021;-95
2022/05/03 16:19:22;;;;;;;9.27;3.13;;;;;;;;;;6034227;23;20527;-92
2022/05/03 16:21:54;;;;;;;7.70;2.80;;;;;;;;;;6094640;23;20068;-92
2022/05/03 16:24:22;;;;;;;8.77;2.50;;;;;;;;;;6152186;23;20021;-93
2022/05/03 16:26:49;;;;;;;7.15;3.03;;;;;;;;;;6150862;23;20024;-93
2022/05/03 16:29:18;;;;;;;17.35;3.60;;;;;;;;;;6149991;23;20044;-94
2022/05/03 16:31:45;;;;;;;13.32;2.92;;;;;;;;;;6147696;23;20037;-94
2022/05/03 16:34:12;;;;;;;6.43;2.38;;;;;;;;;;6141298;23;20100;-94
2022/05/03 16:42:19;;;;;;;8.70;3.97;;;;;;;;;;6163654;23;20017;-96
2022/05/03 16:44:59;;;;;;;4.50;2.72;;;;;;;;;;6138017;23;20017;-95
2022/05/03 16:47:27;;;;;;;5.00;2.67;;;;;;;;;;6137735;23;20013;-96
2022/05/03 16:49:56;;;;;;;4.32;2.25;;;;;;;;;;6151727;23;20016;-96
2022/05/03 16:52:26;;;;;;;7.50;3.25;;;;;;;;;;6194333;23;20063;-96
2022/05/03 16:55:00;;;;;;;7.03;2.70;;;;;;;;;;6193043;23;20048;-96
2022/05/03 16:57:46;;;;;;;6.55;2.40;;;;;;;;;;6192723;23;20071;-96
2022/05/03 17:00:15;;;;;;;5.97;2.42;;;;;;;;;;6193653;23;20052;-95
2022/05/03 17:02:52;;;;;;;7.05;2.90;;;;;;;;;;6193923;23;20078;-96
2022/05/03 17:05:21;;;;;;;8.07;2.95;;;;;;;;;;6191681;23;20475;-96
2022/05/03 17:07:49;;;;;;;8.85;3.05;;;;;;;;;;6193886;23;20050;-96
2022/05/03 17:10:16;;;;;;;8.57;3.08;;;;;;;;;;6193827;23;20163;-95
2022/05/03 17:12:54;;;;;;;;;;;;;;;;;;;;;
2022/05/03 17:15:34;;;;;;;10.18;2.75;;;;;;;;;;6220283;23;20342;-96
2022/05/03 17:18:14;;;;;;;6.65;2.58;;;;;;;;;;6196547;23;20020;-96
2022/05/03 17:21:04;;;;;;;7.03;3.03;;;;;;;;;;6196329;23;20064;-96
2022/05/03 17:23:38;;;;;;;8.88;3.15;;;;;;;;;;6173750;23;20024;-96
2022/05/03 17:26:05;;;;;;;14.25;3.72;;;;;;;;;;6195210;23;20019;-95
2022/05/03 17:28:40;;;;;;;10.57;2.88;;;;;;;;;;6194182;23;20016;-96
2022/05/03 17:31:07;;;;;;;13.13;2.63;;;;;;;;;;6195107;23;20016;-96
2022/05/03 17:33:39;;;;;;;5.63;2.60;;;;;;;;;;6194311;23;20016;-95
2022/05/03 17:36:25;;;;;;;5.65;2.92;;;;;;;;;;6194126;23;20023;-95
2022/05/03 17:38:52;;;;;;;5.22;2.78;;;;;;;;;;6194270;23;20020;-96
2022/05/03 17:41:19;;;;;;;6.35;2.47;;;;;;;;;;6195705;23;20096;-94
2022/05/03 17:43:53;;;;;;;11.27;3.03;;;;;;;;;;6194420;23;20021;-95
2022/05/03 17:46:20;;;;;;;6.18;2.47;;;;;;;;;;6195217;23;20120;-94
2022/05/03 17:48:52;;;;;;;7.78;4.40;;;;;;;;;;6197035;23;20016;-95
2022/05/03 17:51:23;;;;;;;10.82;3.13;;;;;;;;;;6197224;23;20377;-96
2022/05/03 17:54:19;;;;;;;;;;;;;;;;;;;;;
2022/05/03 17:56:51;;;;;;;9.02;3.00;;;;;;;;;;6222352;23;20099;-94
2022/05/03 17:59:37;;;;;;;9.32;3.17;;;;;;;;;;6197638;23;20103;-95
2022/05/03 18:02:15;;;;;;;4.72;2.78;;;;;;;;;;6197584;23;20028;-94
2022/05/03 18:04:44;;;;;;;6.25;2.90;;;;;;;;;;6198147;23;20116;-95
2022/05/03 18:07:21;;;;;;;7.97;3.25;;;;;;;;;;6198978;23;20020;-94
2022/05/03 18:13:07;;;;;;;8.73;3.03;;;;;;;;;;6165751;23;20025;-96
2022/05/03 18:15:53;;;;;;;;;;;;;;;;;;;;;
2022/05/03 18:18:20;;;;;;;8.45;2.85;;;;;;;;;;6162703;23;20076;-95
2022/05/03 20:30:27;;;;;;;6.57;2.95;;;;;;;;;;6238413;22;20088;-94
2022/05/03 20:33:39;;;;;;;7.05;2.95;;;;;;;;;;6050280;23;20045;-94
2022/05/03 20:36:22;;;;;;;4.10;2.60;;;;;;;;;;6044521;23;20106;-92
2022/05/03 20:45:33;;;;;;;10.80;3.58;;;9.10;99.90;;;;;;6252708;22;20695;31
2022/05/03 20:51:56;;;;;;;;;;;;;;;;;;;;;
2022/05/03 20:57:30;;;;;;;;;;;;;;;;;;;;;
2022/05/03 21:00:41;;;;;;;8.57;3.40;;;;;;;;;;6232820;23;20044;-91
2022/05/03 21:07:22;;;;;;;8.27;2.72;;;;;;;;;;6136249;23;20054;-93
2022/05/03 21:13:19;;;;;;;11.00;3.60;;;;;;;;;;6253012;22;20024;-92
2022/05/03 21:21:52;;;;;;;;;;;;;;;;;;;;;
2022/05/03 21:24:24;;;;;;;4.93;3.08;;;;;;;;;;6241289;23;20051;-92
2022/05/03 21:30:40;;;;;;;16.15;3.55;;;;;;;;;;6069979;23;20102;-94
2022/05/03 21:33:34;;;;;;;7.93;3.13;;;;;;;;;;5901615;24;20022;-94
2022/05/03 21:36:17;;;;;;;11.13;4.13;;;;;;;;;;5878311;24;20025;-94
2022/05/03 21:38:49;;;;;;;7.80;3.10;;;;;;;;;;5879355;24;20101;-94
2022/05/03 21:41:26;;;;;;;11.90;3.33;;;;;;;;;;5879332;24;20479;-94
2022/05/03 21:43:52;;;;;;;9.02;3.10;;;;;;;;;;5879785;24;20341;-94
2022/05/03 21:46:18;;;;;;;11.95;3.30;;;;;;;;;;5879482;24;20099;-94
2022/05/03 21:48:44;;;;;;;9.93;3.30;;;;;;;;;;5878984;24;20575;-93
2022/05/03 21:51:10;;;;;;;7.53;3.90;;;;;;;;;;5878824;24;20028;-94
2022/05/03 21:53:36;;;;;;;7.53;3.13;;;;;;;;;;5878018;24;20024;-94
2022/05/03 21:56:03;;;;;;;11.43;3.33;;;;;;;;;;5878267;24;20025;-94
2022/05/03 21:58:29;;;;;;;7.38;3.83;;;;;;;;;;5855766;24;20021;-94
2022/05/03 22:00:59;;;;;;;8.85;3.40;;;;;;;;;;5855574;24;20152;-93
2022/05/03 22:03:25;;;;;;;12.18;3.97;;;;;;;;;;5867118;24;20023;-94
2022/05/03 22:05:52;;;;;;;14.75;3.83;;;;;;;;;;5905210;24;20472;-94
2022/05/03 22:08:18;;;;;;;14.43;3.95;;;;;;;;;;6067234;23;20085;-93